sensor_id;sensor_type;location;lat;lon;timestamp;P1;durP1;ratioP1;P2;durP2;ratioP2
26486;SDS011;14425;56.136;40.360;2023-08-31T00:00:07;20.45;;;10.73;;
26486;SDS011;14425;56.136;40.360;2023-08-31T00:02:37;23.20;;;10.90;;
26486;SDS011;14425;56.136;40.360;2023-08-31T00:05:04;23.70;;;11.38;;
26486;SDS011;14425;56.136;40.360;2023-08-31T00:07:30;18.15;;;10.50;;
26486;SDS011;14425;56.136;40.360;2023-08-31T00:09:57;17.75;;;11.35;;
26486;SDS011;14425;56.136;40.360;2023-08-31T00:12:23;23.20;;;10.60;;
26486;SDS011;14425;56.136;40.360;2023-08-31T00:14:49;20.27;;;10.10;;
26486;SDS011;14425;56.136;40.360;2023-08-31T00:17:15;19.55;;;9.63;;
26486;SDS011;14425;56.136;40.360;2023-08-31T00:19:41;19.05;;;8.93;;
26486;SDS011;14425;56.136;40.360;2023-08-31T00:22:06;16.77;;;9.10;;
26486;SDS011;14425;56.136;40.360;2023-08-31T00:24:32;14.55;;;9.18;;
26486;SDS011;14425;56.136;40.360;2023-08-31T00:27:01;17.08;;;9.85;;
26486;SDS011;14425;56.136;40.360;2023-08-31T00:29:28;19.48;;;10.32;;
26486;SDS011;14425;56.136;40.360;2023-08-31T00:31:55;18.98;;;9.77;;
26486;SDS011;14425;56.136;40.360;2023-08-31T00:34:21;15.32;;;9.82;;
26486;SDS011;14425;56.136;40.360;2023-08-31T00:36:47;18.40;;;9.45;;
26486;SDS011;14425;56.136;40.360;2023-08-31T00:39:13;15.93;;;9.27;;
26486;SDS011;14425;56.136;40.360;2023-08-31T00:41:41;17.77;;;9.57;;
26486;SDS011;14425;56.136;40.360;2023-08-31T00:44:06;16.92;;;9.75;;
26486;SDS011;14425;56.136;40.360;2023-08-31T00:46:32;13.10;;;9.07;;
26486;SDS011;14425;56.136;40.360;2023-08-31T00:49:00;16.85;;;8.93;;
26486;SDS011;14425;56.136;40.360;2023-08-31T00:51:26;14.70;;;9.45;;
26486;SDS011;14425;56.136;40.360;2023-08-31T00:53:52;12.90;;;8.50;;
26486;SDS011;14425;56.136;40.360;2023-08-31T00:56:19;17.25;;;9.52;;
26486;SDS011;14425;56.136;40.360;2023-08-31T00:58:45;14.00;;;9.18;;
26486;SDS011;14425;56.136;40.360;2023-08-31T01:04:21;15.25;;;8.88;;
26486;SDS011;14425;56.136;40.360;2023-08-31T01:09:34;16.05;;;8.65;;
26486;SDS011;14425;56.136;40.360;2023-08-31T01:12:09;10.95;;;7.25;;
26486;SDS011;14425;56.136;40.360;2023-08-31T01:14:42;12.27;;;7.10;;
26486;SDS011;14425;56.136;40.360;2023-08-31T01:17:11;12.60;;;7.40;;
26486;SDS011;14425;56.136;40.360;2023-08-31T01:19:49;10.45;;;7.22;;
26486;SDS011;14425;56.136;40.360;2023-08-31T01:25:01;12.43;;;7.05;;
26486;SDS011;14425;56.136;40.360;2023-08-31T01:27:30;12.05;;;7.25;;
26486;SDS011;14425;56.136;40.360;2023-08-31T01:29:57;12.02;;;7.35;;
26486;SDS011;14425;56.136;40.360;2023-08-31T01:32:23;10.98;;;6.45;;
26486;SDS011;14425;56.136;40.360;2023-08-31T01:34:49;9.57;;;6.18;;
26486;SDS011;14425;56.136;40.360;2023-08-31T01:37:24;10.65;;;7.13;;
26486;SDS011;14425;56.136;40.360;2023-08-31T01:39:56;9.98;;;6.63;;
26486;SDS011;14425;56.136;40.360;2023-08-31T01:42:29;8.68;;;6.57;;
26486;SDS011;14425;56.136;40.360;2023-08-31T01:44:56;9.93;;;6.32;;
26486;SDS011;14425;56.136;40.360;2023-08-31T01:47:24;9.65;;;6.60;;
26486;SDS011;14425;56.136;40.360;2023-08-31T01:49:50;9.02;;;6.18;;
26486;SDS011;14425;56.136;40.360;2023-08-31T01:52:17;6.93;;;6.10;;
26486;SDS011;14425;56.136;40.360;2023-08-31T01:54:42;8.70;;;6.20;;
26486;SDS011;14425;56.136;40.360;2023-08-31T01:57:08;8.05;;;6.05;;
26486;SDS011;14425;56.136;40.360;2023-08-31T01:59:33;11.98;;;5.78;;
26486;SDS011;14425;56.136;40.360;2023-08-31T02:02:00;9.48;;;6.20;;
26486;SDS011;14425;56.136;40.360;2023-08-31T02:04:25;7.82;;;6.10;;
26486;SDS011;14425;56.136;40.360;2023-08-31T02:06:51;10.20;;;6.90;;
26486;SDS011;14425;56.136;40.360;2023-08-31T02:09:16;11.15;;;6.57;;
26486;SDS011;14425;56.136;40.360;2023-08-31T02:11:42;9.75;;;5.65;;
26486;SDS011;14425;56.136;40.360;2023-08-31T02:14:07;14.30;;;6.55;;
26486;SDS011;14425;56.136;40.360;2023-08-31T02:16:33;11.43;;;5.57;;
26486;SDS011;14425;56.136;40.360;2023-08-31T02:19:00;8.90;;;5.60;;
26486;SDS011;14425;56.136;40.360;2023-08-31T02:21:25;9.60;;;5.43;;
26486;SDS011;14425;56.136;40.360;2023-08-31T02:23:51;9.15;;;5.57;;
26486;SDS011;14425;56.136;40.360;2023-08-31T02:26:16;7.88;;;5.20;;
26486;SDS011;14425;56.136;40.360;2023-08-31T02:28:42;7.65;;;5.93;;
26486;SDS011;14425;56.136;40.360;2023-08-31T02:31:09;8.65;;;5.35;;
26486;SDS011;14425;56.136;40.360;2023-08-31T02:33:35;8.20;;;5.50;;
26486;SDS011;14425;56.136;40.360;2023-08-31T02:36:01;8.23;;;5.55;;
26486;SDS011;14425;56.136;40.360;2023-08-31T02:38:27;10.95;;;5.78;;
26486;SDS011;14425;56.136;40.360;2023-08-31T02:40:52;7.28;;;4.93;;
26486;SDS011;14425;56.136;40.360;2023-08-31T02:43:18;7.85;;;5.57;;
26486;SDS011;14425;56.136;40.360;2023-08-31T02:45:43;6.10;;;4.82;;
26486;SDS011;14425;56.136;40.360;2023-08-31T02:48:09;8.35;;;5.10;;
26486;SDS011;14425;56.136;40.360;2023-08-31T02:50:35;6.32;;;5.45;;
26486;SDS011;14425;56.136;40.360;2023-08-31T02:53:01;8.20;;;5.60;;
26486;SDS011;14425;56.136;40.360;2023-08-31T02:55:27;7.80;;;5.60;;
26486;SDS011;14425;56.136;40.360;2023-08-31T02:57:53;6.50;;;5.05;;
26486;SDS011;14425;56.136;40.360;2023-08-31T03:00:19;8.85;;;6.38;;
26486;SDS011;14425;56.136;40.360;2023-08-31T03:02:47;12.38;;;4.72;;
26486;SDS011;14425;56.136;40.360;2023-08-31T03:05:13;6.68;;;5.03;;
26486;SDS011;14425;56.136;40.360;2023-08-31T03:07:39;12.90;;;8.23;;
26486;SDS011;14425;56.136;40.360;2023-08-31T03:10:04;10.32;;;5.70;;
26486;SDS011;14425;56.136;40.360;2023-08-31T03:12:30;11.60;;;6.05;;
26486;SDS011;14425;56.136;40.360;2023-08-31T03:14:56;9.57;;;6.93;;
26486;SDS011;14425;56.136;40.360;2023-08-31T03:17:21;8.32;;;5.90;;
26486;SDS011;14425;56.136;40.360;2023-08-31T03:19:50;12.00;;;5.85;;
26486;SDS011;14425;56.136;40.360;2023-08-31T03:22:15;6.72;;;5.93;;
26486;SDS011;14425;56.136;40.360;2023-08-31T03:24:41;9.25;;;5.55;;
26486;SDS011;14425;56.136;40.360;2023-08-31T03:27:07;8.25;;;5.70;;
26486;SDS011;14425;56.136;40.360;2023-08-31T03:29:32;8.10;;;5.65;;
26486;SDS011;14425;56.136;40.360;2023-08-31T03:31:59;7.68;;;5.30;;
26486;SDS011;14425;56.136;40.360;2023-08-31T03:34:29;7.75;;;5.63;;
26486;SDS011;14425;56.136;40.360;2023-08-31T03:36:56;8.65;;;5.93;;
26486;SDS011;14425;56.136;40.360;2023-08-31T03:39:21;11.30;;;5.53;;
26486;SDS011;14425;56.136;40.360;2023-08-31T03:41:47;8.52;;;5.18;;
26486;SDS011;14425;56.136;40.360;2023-08-31T03:44:12;7.15;;;5.03;;
26486;SDS011;14425;56.136;40.360;2023-08-31T03:46:37;8.73;;;5.25;;
26486;SDS011;14425;56.136;40.360;2023-08-31T03:49:03;15.43;;;6.38;;
26486;SDS011;14425;56.136;40.360;2023-08-31T03:51:28;9.15;;;5.22;;
26486;SDS011;14425;56.136;40.360;2023-08-31T03:53:54;8.27;;;5.40;;
26486;SDS011;14425;56.136;40.360;2023-08-31T03:56:21;5.10;;;4.40;;
26486;SDS011;14425;56.136;40.360;2023-08-31T03:58:47;6.88;;;4.88;;
26486;SDS011;14425;56.136;40.360;2023-08-31T04:01:12;5.25;;;4.68;;
26486;SDS011;14425;56.136;40.360;2023-08-31T04:03:39;6.28;;;4.68;;
26486;SDS011;14425;56.136;40.360;2023-08-31T04:06:07;12.38;;;5.00;;
26486;SDS011;14425;56.136;40.360;2023-08-31T04:08:32;6.25;;;4.70;;
26486;SDS011;14425;56.136;40.360;2023-08-31T04:10:58;8.18;;;4.00;;
26486;SDS011;14425;56.136;40.360;2023-08-31T04:13:23;7.35;;;4.93;;
26486;SDS011;14425;56.136;40.360;2023-08-31T04:15:49;6.65;;;4.68;;
26486;SDS011;14425;56.136;40.360;2023-08-31T04:18:14;5.57;;;4.47;;
26486;SDS011;14425;56.136;40.360;2023-08-31T04:20:46;7.63;;;4.72;;
26486;SDS011;14425;56.136;40.360;2023-08-31T04:23:13;6.53;;;4.47;;
26486;SDS011;14425;56.136;40.360;2023-08-31T04:25:39;4.40;;;3.65;;
26486;SDS011;14425;56.136;40.360;2023-08-31T04:28:04;4.53;;;4.05;;
26486;SDS011;14425;56.136;40.360;2023-08-31T04:30:29;6.78;;;4.05;;
26486;SDS011;14425;56.136;40.360;2023-08-31T04:32:56;9.57;;;4.95;;
26486;SDS011;14425;56.136;40.360;2023-08-31T04:35:21;7.55;;;4.68;;
26486;SDS011;14425;56.136;40.360;2023-08-31T04:37:47;7.22;;;4.60;;
26486;SDS011;14425;56.136;40.360;2023-08-31T04:40:12;9.73;;;5.18;;
26486;SDS011;14425;56.136;40.360;2023-08-31T04:42:37;5.47;;;4.78;;
26486;SDS011;14425;56.136;40.360;2023-08-31T04:45:03;9.80;;;5.45;;
26486;SDS011;14425;56.136;40.360;2023-08-31T04:47:30;8.95;;;5.40;;
26486;SDS011;14425;56.136;40.360;2023-08-31T04:49:55;6.03;;;4.85;;
26486;SDS011;14425;56.136;40.360;2023-08-31T04:52:22;6.28;;;5.00;;
26486;SDS011;14425;56.136;40.360;2023-08-31T04:54:47;6.82;;;4.57;;
26486;SDS011;14425;56.136;40.360;2023-08-31T04:57:13;6.95;;;4.50;;
26486;SDS011;14425;56.136;40.360;2023-08-31T04:59:38;5.28;;;4.35;;
26486;SDS011;14425;56.136;40.360;2023-08-31T05:02:03;7.80;;;4.60;;
26486;SDS011;14425;56.136;40.360;2023-08-31T05:04:29;7.63;;;5.00;;
26486;SDS011;14425;56.136;40.360;2023-08-31T05:06:55;6.45;;;4.90;;
26486;SDS011;14425;56.136;40.360;2023-08-31T05:09:21;7.65;;;4.55;;
26486;SDS011;14425;56.136;40.360;2023-08-31T05:11:46;5.40;;;3.95;;
26486;SDS011;14425;56.136;40.360;2023-08-31T05:14:12;16.50;;;5.82;;
26486;SDS011;14425;56.136;40.360;2023-08-31T05:16:37;18.45;;;5.85;;
26486;SDS011;14425;56.136;40.360;2023-08-31T05:19:02;9.45;;;5.00;;
26486;SDS011;14425;56.136;40.360;2023-08-31T05:21:28;5.70;;;4.57;;
26486;SDS011;14425;56.136;40.360;2023-08-31T05:23:53;9.60;;;5.03;;
26486;SDS011;14425;56.136;40.360;2023-08-31T05:26:19;36.47;;;14.88;;
26486;SDS011;14425;56.136;40.360;2023-08-31T05:28:44;8.40;;;4.63;;
26486;SDS011;14425;56.136;40.360;2023-08-31T05:31:09;8.32;;;5.20;;
26486;SDS011;14425;56.136;40.360;2023-08-31T05:33:35;11.82;;;4.50;;
26486;SDS011;14425;56.136;40.360;2023-08-31T05:36:01;10.02;;;4.60;;
26486;SDS011;14425;56.136;40.360;2023-08-31T05:38:30;5.88;;;4.85;;
26486;SDS011;14425;56.136;40.360;2023-08-31T05:41:05;18.45;;;5.95;;
26486;SDS011;14425;56.136;40.360;2023-08-31T05:43:35;9.73;;;4.72;;
26486;SDS011;14425;56.136;40.360;2023-08-31T05:46:01;9.07;;;4.45;;
26486;SDS011;14425;56.136;40.360;2023-08-31T05:48:27;20.50;;;5.10;;
26486;SDS011;14425;56.136;40.360;2023-08-31T05:50:53;8.77;;;4.57;;
26486;SDS011;14425;56.136;40.360;2023-08-31T05:53:20;16.63;;;4.88;;
26486;SDS011;14425;56.136;40.360;2023-08-31T05:55:45;14.27;;;4.10;;
26486;SDS011;14425;56.136;40.360;2023-08-31T05:58:10;5.30;;;4.50;;
26486;SDS011;14425;56.136;40.360;2023-08-31T06:00:36;9.48;;;4.93;;
26486;SDS011;14425;56.136;40.360;2023-08-31T06:03:01;11.32;;;4.80;;
26486;SDS011;14425;56.136;40.360;2023-08-31T06:05:29;5.68;;;4.55;;
26486;SDS011;14425;56.136;40.360;2023-08-31T06:07:56;8.95;;;3.90;;
26486;SDS011;14425;56.136;40.360;2023-08-31T06:10:22;5.13;;;3.40;;
26486;SDS011;14425;56.136;40.360;2023-08-31T06:12:48;8.93;;;4.95;;
26486;SDS011;14425;56.136;40.360;2023-08-31T06:15:15;5.88;;;3.88;;
26486;SDS011;14425;56.136;40.360;2023-08-31T06:17:40;10.75;;;4.05;;
26486;SDS011;14425;56.136;40.360;2023-08-31T06:20:06;6.72;;;3.80;;
26486;SDS011;14425;56.136;40.360;2023-08-31T06:22:33;4.13;;;3.72;;
26486;SDS011;14425;56.136;40.360;2023-08-31T06:24:59;12.52;;;5.38;;
26486;SDS011;14425;56.136;40.360;2023-08-31T06:27:25;6.45;;;3.40;;
26486;SDS011;14425;56.136;40.360;2023-08-31T06:29:51;4.10;;;2.70;;
26486;SDS011;14425;56.136;40.360;2023-08-31T06:32:17;5.68;;;3.20;;
26486;SDS011;14425;56.136;40.360;2023-08-31T06:34:43;5.65;;;2.95;;
26486;SDS011;14425;56.136;40.360;2023-08-31T06:37:09;6.25;;;3.22;;
26486;SDS011;14425;56.136;40.360;2023-08-31T06:39:34;7.35;;;2.53;;
26486;SDS011;14425;56.136;40.360;2023-08-31T06:42:01;5.13;;;3.60;;
26486;SDS011;14425;56.136;40.360;2023-08-31T06:44:26;5.80;;;3.67;;
26486;SDS011;14425;56.136;40.360;2023-08-31T06:46:52;7.38;;;3.97;;
26486;SDS011;14425;56.136;40.360;2023-08-31T06:49:17;6.03;;;3.30;;
26486;SDS011;14425;56.136;40.360;2023-08-31T06:51:44;8.85;;;3.17;;
26486;SDS011;14425;56.136;40.360;2023-08-31T06:54:09;3.80;;;3.03;;
26486;SDS011;14425;56.136;40.360;2023-08-31T06:56:35;5.05;;;3.58;;
26486;SDS011;14425;56.136;40.360;2023-08-31T06:59:01;3.30;;;2.72;;
26486;SDS011;14425;56.136;40.360;2023-08-31T07:01:27;4.13;;;3.55;;
26486;SDS011;14425;56.136;40.360;2023-08-31T07:03:54;5.80;;;3.33;;
26486;SDS011;14425;56.136;40.360;2023-08-31T07:06:20;7.78;;;3.00;;
26486;SDS011;14425;56.136;40.360;2023-08-31T07:08:46;4.47;;;3.00;;
26486;SDS011;14425;56.136;40.360;2023-08-31T07:11:12;3.50;;;2.90;;
26486;SDS011;14425;56.136;40.360;2023-08-31T07:13:37;4.35;;;2.60;;
26486;SDS011;14425;56.136;40.360;2023-08-31T07:16:03;4.72;;;3.20;;
26486;SDS011;14425;56.136;40.360;2023-08-31T07:18:30;5.63;;;3.13;;
26486;SDS011;14425;56.136;40.360;2023-08-31T07:20:56;3.65;;;2.75;;
26486;SDS011;14425;56.136;40.360;2023-08-31T07:23:22;5.75;;;3.00;;
26486;SDS011;14425;56.136;40.360;2023-08-31T07:25:48;5.05;;;3.08;;
26486;SDS011;14425;56.136;40.360;2023-08-31T07:28:14;4.00;;;3.20;;
26486;SDS011;14425;56.136;40.360;2023-08-31T07:30:39;3.65;;;2.72;;
26486;SDS011;14425;56.136;40.360;2023-08-31T07:33:05;3.47;;;2.85;;
26486;SDS011;14425;56.136;40.360;2023-08-31T07:35:31;5.70;;;3.25;;
26486;SDS011;14425;56.136;40.360;2023-08-31T07:37:57;4.07;;;2.90;;
26486;SDS011;14425;56.136;40.360;2023-08-31T07:40:22;5.38;;;3.00;;
26486;SDS011;14425;56.136;40.360;2023-08-31T07:42:47;5.88;;;2.85;;
26486;SDS011;14425;56.136;40.360;2023-08-31T07:45:13;3.35;;;2.58;;
26486;SDS011;14425;56.136;40.360;2023-08-31T07:47:38;4.07;;;2.90;;
26486;SDS011;14425;56.136;40.360;2023-08-31T07:50:04;8.55;;;6.13;;
26486;SDS011;14425;56.136;40.360;2023-08-31T07:52:30;4.68;;;3.33;;
26486;SDS011;14425;56.136;40.360;2023-08-31T07:54:55;3.50;;;3.20;;
26486;SDS011;14425;56.136;40.360;2023-08-31T07:57:21;4.20;;;2.65;;
26486;SDS011;14425;56.136;40.360;2023-08-31T07:59:46;11.35;;;3.10;;
26486;SDS011;14425;56.136;40.360;2023-08-31T08:02:12;8.43;;;2.85;;
26486;SDS011;14425;56.136;40.360;2023-08-31T08:04:38;3.17;;;2.60;;
26486;SDS011;14425;56.136;40.360;2023-08-31T08:07:03;10.45;;;2.80;;
26486;SDS011;14425;56.136;40.360;2023-08-31T08:09:29;3.72;;;2.97;;
26486;SDS011;14425;56.136;40.360;2023-08-31T08:11:57;3.30;;;2.95;;
26486;SDS011;14425;56.136;40.360;2023-08-31T08:14:23;5.72;;;2.85;;
26486;SDS011;14425;56.136;40.360;2023-08-31T08:16:48;4.63;;;2.55;;
26486;SDS011;14425;56.136;40.360;2023-08-31T08:19:13;8.70;;;3.33;;
26486;SDS011;14425;56.136;40.360;2023-08-31T08:21:39;4.47;;;2.38;;
26486;SDS011;14425;56.136;40.360;2023-08-31T08:24:04;7.88;;;2.30;;
26486;SDS011;14425;56.136;40.360;2023-08-31T08:26:30;6.60;;;3.25;;
26486;SDS011;14425;56.136;40.360;2023-08-31T08:28:55;6.30;;;2.85;;
26486;SDS011;14425;56.136;40.360;2023-08-31T08:31:20;4.63;;;2.40;;
26486;SDS011;14425;56.136;40.360;2023-08-31T08:33:46;4.40;;;3.40;;
26486;SDS011;14425;56.136;40.360;2023-08-31T08:36:11;5.25;;;2.67;;
26486;SDS011;14425;56.136;40.360;2023-08-31T08:38:36;3.05;;;2.47;;
26486;SDS011;14425;56.136;40.360;2023-08-31T08:41:05;10.45;;;2.58;;
26486;SDS011;14425;56.136;40.360;2023-08-31T08:43:34;6.25;;;2.75;;
26486;SDS011;14425;56.136;40.360;2023-08-31T08:46:04;4.88;;;2.88;;
26486;SDS011;14425;56.136;40.360;2023-08-31T08:48:31;2.85;;;2.53;;
26486;SDS011;14425;56.136;40.360;2023-08-31T08:50:59;4.82;;;2.90;;
26486;SDS011;14425;56.136;40.360;2023-08-31T08:53:25;4.40;;;2.80;;
26486;SDS011;14425;56.136;40.360;2023-08-31T08:55:50;4.72;;;2.58;;
26486;SDS011;14425;56.136;40.360;2023-08-31T08:58:28;5.45;;;2.92;;
26486;SDS011;14425;56.136;40.360;2023-08-31T09:00:57;3.08;;;2.45;;
26486;SDS011;14425;56.136;40.360;2023-08-31T09:03:23;3.13;;;2.80;;
26486;SDS011;14425;56.136;40.360;2023-08-31T09:05:50;4.50;;;2.58;;
26486;SDS011;14425;56.136;40.360;2023-08-31T09:08:17;5.30;;;2.38;;
26486;SDS011;14425;56.136;40.360;2023-08-31T09:10:43;4.70;;;2.92;;
26486;SDS011;14425;56.136;40.360;2023-08-31T09:13:10;3.58;;;3.08;;
26486;SDS011;14425;56.136;40.360;2023-08-31T09:15:38;5.53;;;2.90;;
26486;SDS011;14425;56.136;40.360;2023-08-31T09:18:06;4.70;;;2.70;;
26486;SDS011;14425;56.136;40.360;2023-08-31T09:20:31;4.35;;;2.80;;
26486;SDS011;14425;56.136;40.360;2023-08-31T09:23:08;4.68;;;2.45;;
26486;SDS011;14425;56.136;40.360;2023-08-31T09:25:38;6.53;;;2.40;;
26486;SDS011;14425;56.136;40.360;2023-08-31T09:28:07;4.47;;;2.42;;
26486;SDS011;14425;56.136;40.360;2023-08-31T09:30:36;3.65;;;2.60;;
26486;SDS011;14425;56.136;40.360;2023-08-31T09:33:06;5.68;;;2.72;;
26486;SDS011;14425;56.136;40.360;2023-08-31T09:37:59;5.47;;;2.75;;
26486;SDS011;14425;56.136;40.360;2023-08-31T09:40:25;5.53;;;2.70;;
26486;SDS011;14425;56.136;40.360;2023-08-31T09:42:51;3.50;;;2.75;;
26486;SDS011;14425;56.136;40.360;2023-08-31T09:45:17;4.35;;;2.63;;
26486;SDS011;14425;56.136;40.360;2023-08-31T09:48:03;4.53;;;2.50;;
26486;SDS011;14425;56.136;40.360;2023-08-31T09:50:30;9.93;;;2.92;;
26486;SDS011;14425;56.136;40.360;2023-08-31T09:53:01;4.53;;;2.88;;
26486;SDS011;14425;56.136;40.360;2023-08-31T09:55:30;2.75;;;2.42;;
26486;SDS011;14425;56.136;40.360;2023-08-31T09:57:57;4.25;;;2.20;;
26486;SDS011;14425;56.136;40.360;2023-08-31T10:00:25;3.20;;;2.40;;
26486;SDS011;14425;56.136;40.360;2023-08-31T10:02:52;3.35;;;2.30;;
26486;SDS011;14425;56.136;40.360;2023-08-31T10:05:44;6.28;;;2.35;;
26486;SDS011;14425;56.136;40.360;2023-08-31T10:08:13;2.88;;;2.50;;
26486;SDS011;14425;56.136;40.360;2023-08-31T10:10:40;4.70;;;2.78;;
26486;SDS011;14425;56.136;40.360;2023-08-31T10:13:06;3.78;;;2.97;;
26486;SDS011;14425;56.136;40.360;2023-08-31T10:15:32;5.28;;;2.30;;
26486;SDS011;14425;56.136;40.360;2023-08-31T10:18:02;4.28;;;2.88;;
26486;SDS011;14425;56.136;40.360;2023-08-31T10:22:59;4.97;;;2.70;;
26486;SDS011;14425;56.136;40.360;2023-08-31T10:33:30;47.45;;;6.82;;
26486;SDS011;14425;56.136;40.360;2023-08-31T10:36:00;5.45;;;2.72;;
26486;SDS011;14425;56.136;40.360;2023-08-31T10:46:16;11.68;;;3.30;;
26486;SDS011;14425;56.136;40.360;2023-08-31T10:48:52;5.07;;;2.72;;
26486;SDS011;14425;56.136;40.360;2023-08-31T10:51:40;6.40;;;2.67;;
26486;SDS011;14425;56.136;40.360;2023-08-31T10:54:10;6.80;;;2.58;;
26486;SDS011;14425;56.136;40.360;2023-08-31T11:07:48;3.33;;;2.30;;
26486;SDS011;14425;56.136;40.360;2023-08-31T11:10:18;3.20;;;2.15;;
26486;SDS011;14425;56.136;40.360;2023-08-31T11:12:49;5.40;;;3.20;;
26486;SDS011;14425;56.136;40.360;2023-08-31T11:15:16;5.90;;;2.22;;
26486;SDS011;14425;56.136;40.360;2023-08-31T11:17:43;10.13;;;2.70;;
26486;SDS011;14425;56.136;40.360;2023-08-31T11:20:13;4.75;;;2.80;;
26486;SDS011;14425;56.136;40.360;2023-08-31T11:22:44;14.50;;;6.72;;
26486;SDS011;14425;56.136;40.360;2023-08-31T11:25:18;7.68;;;2.80;;
26486;SDS011;14425;56.136;40.360;2023-08-31T11:28:00;6.40;;;2.90;;
26486;SDS011;14425;56.136;40.360;2023-08-31T11:30:30;5.95;;;2.90;;
26486;SDS011;14425;56.136;40.360;2023-08-31T11:33:03;4.17;;;2.37;;
26486;SDS011;14425;56.136;40.360;2023-08-31T11:38:02;5.85;;;3.60;;
26486;SDS011;14425;56.136;40.360;2023-08-31T11:40:31;6.03;;;2.78;;
26486;SDS011;14425;56.136;40.360;2023-08-31T11:43:00;5.82;;;2.72;;
26486;SDS011;14425;56.136;40.360;2023-08-31T11:45:26;6.28;;;2.75;;
26486;SDS011;14425;56.136;40.360;2023-08-31T11:47:53;2.58;;;2.05;;
26486;SDS011;14425;56.136;40.360;2023-08-31T11:50:19;4.78;;;2.58;;
26486;SDS011;14425;56.136;40.360;2023-08-31T11:52:45;5.75;;;2.40;;
26486;SDS011;14425;56.136;40.360;2023-08-31T11:55:12;4.80;;;2.60;;
26486;SDS011;14425;56.136;40.360;2023-08-31T11:57:39;5.53;;;2.65;;
26486;SDS011;14425;56.136;40.360;2023-08-31T12:00:05;4.28;;;2.33;;
26486;SDS011;14425;56.136;40.360;2023-08-31T12:02:35;2.65;;;2.30;;
26486;SDS011;14425;56.136;40.360;2023-08-31T12:05:04;3.45;;;2.50;;
26486;SDS011;14425;56.136;40.360;2023-08-31T12:07:30;3.72;;;2.78;;
26486;SDS011;14425;56.136;40.360;2023-08-31T12:10:02;3.58;;;2.50;;
26486;SDS011;14425;56.136;40.360;2023-08-31T12:12:31;5.10;;;2.40;;
26486;SDS011;14425;56.136;40.360;2023-08-31T12:14:58;2.63;;;2.33;;
26486;SDS011;14425;56.136;40.360;2023-08-31T12:17:30;3.65;;;2.97;;
26486;SDS011;14425;56.136;40.360;2023-08-31T12:20:02;3.95;;;2.90;;
26486;SDS011;14425;56.136;40.360;2023-08-31T12:22:30;4.07;;;2.60;;
26486;SDS011;14425;56.136;40.360;2023-08-31T12:24:56;3.50;;;2.45;;
26486;SDS011;14425;56.136;40.360;2023-08-31T12:27:21;4.20;;;2.30;;
26486;SDS011;14425;56.136;40.360;2023-08-31T12:29:47;4.55;;;2.53;;
26486;SDS011;14425;56.136;40.360;2023-08-31T12:32:12;3.78;;;2.45;;
26486;SDS011;14425;56.136;40.360;2023-08-31T12:34:38;5.55;;;2.28;;
26486;SDS011;14425;56.136;40.360;2023-08-31T12:37:03;3.80;;;2.58;;
26486;SDS011;14425;56.136;40.360;2023-08-31T12:39:30;3.78;;;2.50;;
26486;SDS011;14425;56.136;40.360;2023-08-31T12:41:55;8.05;;;2.30;;
26486;SDS011;14425;56.136;40.360;2023-08-31T12:44:21;3.40;;;2.60;;
26486;SDS011;14425;56.136;40.360;2023-08-31T12:46:47;3.60;;;2.45;;
26486;SDS011;14425;56.136;40.360;2023-08-31T12:49:12;3.38;;;2.38;;
26486;SDS011;14425;56.136;40.360;2023-08-31T12:51:38;4.18;;;2.25;;
26486;SDS011;14425;56.136;40.360;2023-08-31T12:54:03;4.15;;;2.42;;
26486;SDS011;14425;56.136;40.360;2023-08-31T12:56:29;5.18;;;3.58;;
26486;SDS011;14425;56.136;40.360;2023-08-31T12:58:54;4.93;;;2.78;;
26486;SDS011;14425;56.136;40.360;2023-08-31T13:01:21;8.45;;;4.88;;
26486;SDS011;14425;56.136;40.360;2023-08-31T13:03:49;32.90;;;16.10;;
26486;SDS011;14425;56.136;40.360;2023-08-31T13:06:14;6.30;;;3.97;;
26486;SDS011;14425;56.136;40.360;2023-08-31T13:08:41;3.33;;;2.47;;
26486;SDS011;14425;56.136;40.360;2023-08-31T13:11:08;4.13;;;2.67;;
26486;SDS011;14425;56.136;40.360;2023-08-31T13:13:34;3.78;;;2.65;;
26486;SDS011;14425;56.136;40.360;2023-08-31T13:16:00;3.55;;;2.50;;
26486;SDS011;14425;56.136;40.360;2023-08-31T13:18:25;12.93;;;3.40;;
26486;SDS011;14425;56.136;40.360;2023-08-31T13:20:51;3.65;;;2.13;;
26486;SDS011;14425;56.136;40.360;2023-08-31T13:23:18;2.85;;;2.28;;
26486;SDS011;14425;56.136;40.360;2023-08-31T13:25:43;3.50;;;2.50;;
26486;SDS011;14425;56.136;40.360;2023-08-31T13:28:09;4.00;;;2.33;;
26486;SDS011;14425;56.136;40.360;2023-08-31T13:30:35;2.80;;;2.38;;
26486;SDS011;14425;56.136;40.360;2023-08-31T13:33:00;5.25;;;3.00;;
26486;SDS011;14425;56.136;40.360;2023-08-31T13:35:26;12.20;;;3.13;;
26486;SDS011;14425;56.136;40.360;2023-08-31T13:37:52;5.35;;;3.20;;
26486;SDS011;14425;56.136;40.360;2023-08-31T13:40:18;6.50;;;4.00;;
26486;SDS011;14425;56.136;40.360;2023-08-31T13:42:57;4.65;;;2.88;;
26486;SDS011;14425;56.136;40.360;2023-08-31T13:45:27;3.25;;;2.60;;
26486;SDS011;14425;56.136;40.360;2023-08-31T13:47:52;3.38;;;2.85;;
26486;SDS011;14425;56.136;40.360;2023-08-31T13:50:18;4.10;;;2.42;;
26486;SDS011;14425;56.136;40.360;2023-08-31T13:52:44;2.80;;;2.53;;
26486;SDS011;14425;56.136;40.360;2023-08-31T13:55:10;6.97;;;2.88;;
26486;SDS011;14425;56.136;40.360;2023-08-31T13:57:36;5.03;;;2.60;;
26486;SDS011;14425;56.136;40.360;2023-08-31T14:00:02;4.47;;;2.50;;
26486;SDS011;14425;56.136;40.360;2023-08-31T14:02:30;4.35;;;2.78;;
26486;SDS011;14425;56.136;40.360;2023-08-31T14:04:55;3.72;;;3.20;;
26486;SDS011;14425;56.136;40.360;2023-08-31T14:07:22;4.90;;;2.40;;
26486;SDS011;14425;56.136;40.360;2023-08-31T14:09:48;6.38;;;3.08;;
26486;SDS011;14425;56.136;40.360;2023-08-31T14:12:13;4.82;;;2.53;;
26486;SDS011;14425;56.136;40.360;2023-08-31T14:14:39;7.70;;;2.60;;
26486;SDS011;14425;56.136;40.360;2023-08-31T14:17:06;5.75;;;2.88;;
26486;SDS011;14425;56.136;40.360;2023-08-31T14:19:32;6.57;;;2.72;;
26486;SDS011;14425;56.136;40.360;2023-08-31T14:21:58;2.90;;;2.60;;
26486;SDS011;14425;56.136;40.360;2023-08-31T14:24:24;4.13;;;2.45;;
26486;SDS011;14425;56.136;40.360;2023-08-31T14:26:49;2.88;;;2.50;;
26486;SDS011;14425;56.136;40.360;2023-08-31T14:29:16;6.20;;;3.00;;
26486;SDS011;14425;56.136;40.360;2023-08-31T14:31:42;5.28;;;2.42;;
26486;SDS011;14425;56.136;40.360;2023-08-31T14:34:07;5.15;;;2.83;;
26486;SDS011;14425;56.136;40.360;2023-08-31T14:36:33;5.75;;;2.60;;
26486;SDS011;14425;56.136;40.360;2023-08-31T14:38:58;4.53;;;2.78;;
26486;SDS011;14425;56.136;40.360;2023-08-31T14:41:23;6.05;;;2.67;;
26486;SDS011;14425;56.136;40.360;2023-08-31T14:43:49;3.22;;;2.45;;
26486;SDS011;14425;56.136;40.360;2023-08-31T14:46:15;3.42;;;2.60;;
26486;SDS011;14425;56.136;40.360;2023-08-31T14:48:40;5.22;;;2.63;;
26486;SDS011;14425;56.136;40.360;2023-08-31T14:51:06;3.65;;;2.35;;
26486;SDS011;14425;56.136;40.360;2023-08-31T14:53:31;5.10;;;2.72;;
26486;SDS011;14425;56.136;40.360;2023-08-31T14:55:57;23.92;;;5.00;;
26486;SDS011;14425;56.136;40.360;2023-08-31T14:58:23;7.93;;;3.20;;
26486;SDS011;14425;56.136;40.360;2023-08-31T15:00:48;6.47;;;3.25;;
26486;SDS011;14425;56.136;40.360;2023-08-31T15:03:14;25.95;;;5.93;;
26486;SDS011;14425;56.136;40.360;2023-08-31T15:05:39;4.43;;;2.90;;
26486;SDS011;14425;56.136;40.360;2023-08-31T15:08:08;7.57;;;3.45;;
26486;SDS011;14425;56.136;40.360;2023-08-31T15:10:34;7.38;;;2.55;;